sensor_id;sensor_type;location;lat;lon;timestamp;temperature;humidity
38902;DHT22;24661;53.566;9.910;2023-06-14T00:01:17;15.40;99.90
38902;DHT22;24661;53.566;9.910;2023-06-14T00:03:45;15.40;99.90
38902;DHT22;24661;53.566;9.910;2023-06-14T00:06:12;15.40;99.90
38902;DHT22;24661;53.566;9.910;2023-06-14T00:08:38;15.40;99.90
38902;DHT22;24661;53.566;9.910;2023-06-14T00:11:05;15.30;99.90
38902;DHT22;24661;53.566;9.910;2023-06-14T00:13:31;15.30;99.90
38902;DHT22;24661;53.566;9.910;2023-06-14T00:15:56;15.20;99.90
38902;DHT22;24661;53.566;9.910;2023-06-14T00:18:22;15.30;99.90
38902;DHT22;24661;53.566;9.910;2023-06-14T00:20:51;15.20;99.90
38902;DHT22;24661;53.566;9.910;2023-06-14T00:23:17;15.30;99.90
38902;DHT22;24661;53.566;9.910;2023-06-14T00:25:43;15.30;99.90
38902;DHT22;24661;53.566;9.910;2023-06-14T00:28:09;15.30;99.90
38902;DHT22;24661;53.566;9.910;2023-06-14T00:30:34;15.20;99.90
38902;DHT22;24661;53.566;9.910;2023-06-14T00:33:01;15.20;99.90
38902;DHT22;24661;53.566;9.910;2023-06-14T00:35:26;15.20;99.90
38902;DHT22;24661;53.566;9.910;2023-06-14T00:37:52;15.10;99.90
38902;DHT22;24661;53.566;9.910;2023-06-14T00:40:20;15.00;99.90
38902;DHT22;24661;53.566;9.910;2023-06-14T00:42:46;15.20;99.90
38902;DHT22;24661;53.566;9.910;2023-06-14T00:45:12;15.10;99.90
38902;DHT22;24661;53.566;9.910;2023-06-14T00:47:38;15.10;99.90
38902;DHT22;24661;53.566;9.910;2023-06-14T00:50:07;15.00;99.90
38902;DHT22;24661;53.566;9.910;2023-06-14T00:52:33;15.00;99.90
38902;DHT22;24661;53.566;9.910;2023-06-14T00:54:59;15.00;99.90
38902;DHT22;24661;53.566;9.910;2023-06-14T00:57:26;15.00;99.90
38902;DHT22;24661;53.566;9.910;2023-06-14T00:59:52;15.00;99.90
38902;DHT22;24661;53.566;9.910;2023-06-14T01:02:18;15.00;99.90
38902;DHT22;24661;53.566;9.910;2023-06-14T01:04:47;15.00;99.90
38902;DHT22;24661;53.566;9.910;2023-06-14T01:15:32;14.90;99.90
38902;DHT22;24661;53.566;9.910;2023-06-14T01:17:58;14.80;99.90
38902;DHT22;24661;53.566;9.910;2023-06-14T01:20:31;14.80;99.90
38902;DHT22;24661;53.566;9.910;2023-06-14T01:22:57;14.80;99.90
38902;DHT22;24661;53.566;9.910;2023-06-14T01:25:23;14.80;99.90
38902;DHT22;24661;53.566;9.910;2023-06-14T01:30:21;14.80;99.90
38902;DHT22;24661;53.566;9.910;2023-06-14T01:32:48;14.80;99.90
38902;DHT22;24661;53.566;9.910;2023-06-14T01:35:16;14.70;99.90
38902;DHT22;24661;53.566;9.910;2023-06-14T01:37:42;14.70;99.90
38902;DHT22;24661;53.566;9.910;2023-06-14T01:40:10;14.70;99.90
38902;DHT22;24661;53.566;9.910;2023-06-14T01:42:37;14.60;99.90
38902;DHT22;24661;53.566;9.910;2023-06-14T01:45:04;14.60;99.90
38902;DHT22;24661;53.566;9.910;2023-06-14T01:47:31;14.60;99.90
38902;DHT22;24661;53.566;9.910;2023-06-14T01:49:57;14.60;99.90
38902;DHT22;24661;53.566;9.910;2023-06-14T01:52:22;14.60;99.90
38902;DHT22;24661;53.566;9.910;2023-06-14T01:54:50;14.50;99.90
38902;DHT22;24661;53.566;9.910;2023-06-14T01:57:15;14.50;99.90
38902;DHT22;24661;53.566;9.910;2023-06-14T01:59:41;14.50;99.90
38902;DHT22;24661;53.566;9.910;2023-06-14T02:02:06;14.40;99.90
38902;DHT22;24661;53.566;9.910;2023-06-14T02:04:32;14.40;99.90
38902;DHT22;24661;53.566;9.910;2023-06-14T02:06:58;14.30;99.90
38902;DHT22;24661;53.566;9.910;2023-06-14T02:09:23;14.30;99.90
38902;DHT22;24661;53.566;9.910;2023-06-14T02:11:49;14.30;99.90
38902;DHT22;24661;53.566;9.910;2023-06-14T02:14:15;14.30;99.90
38902;DHT22;24661;53.566;9.910;2023-06-14T02:16:42;14.20;99.90
38902;DHT22;24661;53.566;9.910;2023-06-14T02:19:17;14.20;99.90
38902;DHT22;24661;53.566;9.910;2023-06-14T02:21:44;14.20;99.90
38902;DHT22;24661;53.566;9.910;2023-06-14T02:24:09;14.20;99.90
38902;DHT22;24661;53.566;9.910;2023-06-14T02:26:35;14.10;99.90
38902;DHT22;24661;53.566;9.910;2023-06-14T02:29:04;14.10;99.90
38902;DHT22;24661;53.566;9.910;2023-06-14T02:31:31;14.20;99.90
38902;DHT22;24661;53.566;9.910;2023-06-14T02:33:57;14.10;99.90
38902;DHT22;24661;53.566;9.910;2023-06-14T02:36:22;14.10;99.90
38902;DHT22;24661;53.566;9.910;2023-06-14T02:38:48;14.00;99.90
38902;DHT22;24661;53.566;9.910;2023-06-14T02:41:14;14.00;99.90
38902;DHT22;24661;53.566;9.910;2023-06-14T02:43:39;13.90;99.90
38902;DHT22;24661;53.566;9.910;2023-06-14T02:46:05;13.90;99.90
38902;DHT22;24661;53.566;9.910;2023-06-14T02:48:31;13.80;99.90
38902;DHT22;24661;53.566;9.910;2023-06-14T02:50:57;13.90;99.90
38902;DHT22;24661;53.566;9.910;2023-06-14T02:53:22;13.80;99.90
38902;DHT22;24661;53.566;9.910;2023-06-14T02:55:48;13.80;99.90
38902;DHT22;24661;53.566;9.910;2023-06-14T02:58:14;13.80;99.90
38902;DHT22;24661;53.566;9.910;2023-06-14T03:00:40;13.80;99.90
38902;DHT22;24661;53.566;9.910;2023-06-14T03:03:06;13.80;99.90
38902;DHT22;24661;53.566;9.910;2023-06-14T03:05:44;13.80;99.90
38902;DHT22;24661;53.566;9.910;2023-06-14T03:08:13;13.80;99.90
38902;DHT22;24661;53.566;9.910;2023-06-14T03:10:45;13.80;99.90
38902;DHT22;24661;53.566;9.910;2023-06-14T03:13:11;13.80;99.90
38902;DHT22;24661;53.566;9.910;2023-06-14T03:15:37;13.80;99.90
38902;DHT22;24661;53.566;9.910;2023-06-14T03:18:04;13.80;99.90
38902;DHT22;24661;53.566;9.910;2023-06-14T03:20:30;13.80;99.90
38902;DHT22;24661;53.566;9.910;2023-06-14T03:22:59;13.80;99.90
38902;DHT22;24661;53.566;9.910;2023-06-14T03:25:25;13.80;99.90
38902;DHT22;24661;53.566;9.910;2023-06-14T03:27:51;13.80;99.90
38902;DHT22;24661;53.566;9.910;2023-06-14T03:30:17;13.80;99.90
38902;DHT22;24661;53.566;9.910;2023-06-14T03:32:42;13.80;99.90
38902;DHT22;24661;53.566;9.910;2023-06-14T03:35:08;13.80;99.90
38902;DHT22;24661;53.566;9.910;2023-06-14T03:37:34;13.80;99.90
38902;DHT22;24661;53.566;9.910;2023-06-14T03:40:00;13.90;99.90
38902;DHT22;24661;53.566;9.910;2023-06-14T03:42:26;13.90;99.90
38902;DHT22;24661;53.566;9.910;2023-06-14T03:44:51;13.90;99.90
38902;DHT22;24661;53.566;9.910;2023-06-14T03:47:17;14.00;99.90
38902;DHT22;24661;53.566;9.910;2023-06-14T03:49:42;14.00;99.90
38902;DHT22;24661;53.566;9.910;2023-06-14T03:52:08;14.10;99.90
38902;DHT22;24661;53.566;9.910;2023-06-14T03:54:33;14.10;99.90
38902;DHT22;24661;53.566;9.910;2023-06-14T03:56:59;14.10;99.90
38902;DHT22;24661;53.566;9.910;2023-06-14T03:59:25;14.10;99.90
38902;DHT22;24661;53.566;9.910;2023-06-14T04:01:51;14.20;99.90
38902;DHT22;24661;53.566;9.910;2023-06-14T04:04:18;14.30;99.90
38902;DHT22;24661;53.566;9.910;2023-06-14T04:06:44;16.20;99.90
38902;DHT22;24661;53.566;9.910;2023-06-14T04:09:09;14.30;99.90
38902;DHT22;24661;53.566;9.910;2023-06-14T04:11:35;14.40;99.90
38902;DHT22;24661;53.566;9.910;2023-06-14T04:14:02;14.40;99.90
38902;DHT22;24661;53.566;9.910;2023-06-14T04:16:28;14.50;99.90
38902;DHT22;24661;53.566;9.910;2023-06-14T04:18:55;14.50;99.90
38902;DHT22;24661;53.566;9.910;2023-06-14T04:21:20;14.60;99.90
38902;DHT22;24661;53.566;9.910;2023-06-14T04:23:46;14.70;99.90
38902;DHT22;24661;53.566;9.910;2023-06-14T04:26:11;14.70;99.90
38902;DHT22;24661;53.566;9.910;2023-06-14T04:28:37;14.70;99.90
38902;DHT22;24661;53.566;9.910;2023-06-14T04:31:06;14.70;99.90
38902;DHT22;24661;53.566;9.910;2023-06-14T04:33:36;14.80;99.90
38902;DHT22;24661;53.566;9.910;2023-06-14T04:36:11;14.80;99.90
38902;DHT22;24661;53.566;9.910;2023-06-14T04:38:43;14.90;99.90
38902;DHT22;24661;53.566;9.910;2023-06-14T04:41:10;15.10;99.90
38902;DHT22;24661;53.566;9.910;2023-06-14T04:43:37;15.00;99.90
38902;DHT22;24661;53.566;9.910;2023-06-14T04:46:06;15.10;99.90
38902;DHT22;24661;53.566;9.910;2023-06-14T04:48:37;15.10;99.90
38902;DHT22;24661;53.566;9.910;2023-06-14T04:51:03;15.20;99.90
38902;DHT22;24661;53.566;9.910;2023-06-14T04:53:30;15.20;99.90
38902;DHT22;24661;53.566;9.910;2023-06-14T04:55:56;15.30;99.90
38902;DHT22;24661;53.566;9.910;2023-06-14T04:58:21;15.40;99.90
38902;DHT22;24661;53.566;9.910;2023-06-14T05:00:47;15.40;99.90
38902;DHT22;24661;53.566;9.910;2023-06-14T05:03:14;15.50;99.90
38902;DHT22;24661;53.566;9.910;2023-06-14T05:05:40;15.50;99.90
38902;DHT22;24661;53.566;9.910;2023-06-14T05:08:06;15.60;99.90
38902;DHT22;24661;53.566;9.910;2023-06-14T05:10:32;15.60;99.90
38902;DHT22;24661;53.566;9.910;2023-06-14T05:13:00;15.70;99.90
38902;DHT22;24661;53.566;9.910;2023-06-14T05:15:26;15.70;99.90
38902;DHT22;24661;53.566;9.910;2023-06-14T05:17:53;15.70;99.90
38902;DHT22;24661;53.566;9.910;2023-06-14T05:20:24;15.80;99.90
38902;DHT22;24661;53.566;9.910;2023-06-14T05:22:52;15.80;99.90
38902;DHT22;24661;53.566;9.910;2023-06-14T05:25:19;15.90;99.90
38902;DHT22;24661;53.566;9.910;2023-06-14T05:27:46;16.00;99.90
38902;DHT22;24661;53.566;9.910;2023-06-14T05:30:12;16.10;99.90
38902;DHT22;24661;53.566;9.910;2023-06-14T05:32:37;16.10;99.90
38902;DHT22;24661;53.566;9.910;2023-06-14T05:35:03;16.20;99.90
38902;DHT22;24661;53.566;9.910;2023-06-14T05:37:29;16.30;99.90
38902;DHT22;24661;53.566;9.910;2023-06-14T05:39:56;16.40;99.90
38902;DHT22;24661;53.566;9.910;2023-06-14T05:42:21;16.50;99.90
38902;DHT22;24661;53.566;9.910;2023-06-14T05:44:47;16.50;99.90
38902;DHT22;24661;53.566;9.910;2023-06-14T05:47:13;16.60;99.90
38902;DHT22;24661;53.566;9.910;2023-06-14T05:49:38;16.60;99.90
38902;DHT22;24661;53.566;9.910;2023-06-14T05:52:04;16.70;99.90
38902;DHT22;24661;53.566;9.910;2023-06-14T05:54:30;16.80;99.90
38902;DHT22;24661;53.566;9.910;2023-06-14T05:56:55;16.90;99.90
38902;DHT22;24661;53.566;9.910;2023-06-14T05:59:29;17.00;99.90
38902;DHT22;24661;53.566;9.910;2023-06-14T06:01:55;17.00;99.90
38902;DHT22;24661;53.566;9.910;2023-06-14T06:04:20;17.10;99.90
38902;DHT22;24661;53.566;9.910;2023-06-14T06:06:46;17.20;99.90
38902;DHT22;24661;53.566;9.910;2023-06-14T06:09:13;17.20;99.90
38902;DHT22;24661;53.566;9.910;2023-06-14T06:11:40;17.30;99.90
38902;DHT22;24661;53.566;9.910;2023-06-14T06:14:05;17.40;99.90
38902;DHT22;24661;53.566;9.910;2023-06-14T06:16:31;17.50;99.90
38902;DHT22;24661;53.566;9.910;2023-06-14T06:18:57;17.60;99.90
38902;DHT22;24661;53.566;9.910;2023-06-14T06:21:22;17.70;99.90
38902;DHT22;24661;53.566;9.910;2023-06-14T06:23:48;18.30;99.90
38902;DHT22;24661;53.566;9.910;2023-06-14T06:26:13;17.70;99.90
38902;DHT22;24661;53.566;9.910;2023-06-14T06:28:39;17.70;99.90
38902;DHT22;24661;53.566;9.910;2023-06-14T06:31:04;17.80;99.90
38902;DHT22;24661;53.566;9.910;2023-06-14T06:33:30;17.80;99.90
38902;DHT22;24661;53.566;9.910;2023-06-14T06:35:56;17.90;99.90
38902;DHT22;24661;53.566;9.910;2023-06-14T06:38:21;17.90;99.90
38902;DHT22;24661;53.566;9.910;2023-06-14T06:40:47;18.00;99.90
38902;DHT22;24661;53.566;9.910;2023-06-14T06:43:12;18.00;99.90
38902;DHT22;24661;53.566;9.910;2023-06-14T06:45:39;18.20;99.90
38902;DHT22;24661;53.566;9.910;2023-06-14T06:48:05;18.20;99.90
38902;DHT22;24661;53.566;9.910;2023-06-14T06:50:31;18.30;99.90
38902;DHT22;24661;53.566;9.910;2023-06-14T06:52:56;18.40;99.90
38902;DHT22;24661;53.566;9.910;2023-06-14T06:55:22;18.50;99.90
38902;DHT22;24661;53.566;9.910;2023-06-14T06:57:48;18.50;99.90
38902;DHT22;24661;53.566;9.910;2023-06-14T07:00:15;18.60;99.90
38902;DHT22;24661;53.566;9.910;2023-06-14T07:02:41;18.60;99.90
38902;DHT22;24661;53.566;9.910;2023-06-14T07:05:07;18.80;99.90
38902;DHT22;24661;53.566;9.910;2023-06-14T07:07:33;18.80;99.90
38902;DHT22;24661;53.566;9.910;2023-06-14T07:09:59;18.90;99.90
38902;DHT22;24661;53.566;9.910;2023-06-14T07:12:25;18.90;99.90
38902;DHT22;24661;53.566;9.910;2023-06-14T07:14:51;18.90;99.90
38902;DHT22;24661;53.566;9.910;2023-06-14T07:17:16;19.00;99.90
38902;DHT22;24661;53.566;9.910;2023-06-14T07:19:42;19.00;99.90
38902;DHT22;24661;53.566;9.910;2023-06-14T07:22:08;19.00;99.90
38902;DHT22;24661;53.566;9.910;2023-06-14T07:24:33;19.10;99.90
38902;DHT22;24661;53.566;9.910;2023-06-14T07:27:01;19.20;99.90
38902;DHT22;24661;53.566;9.910;2023-06-14T07:29:27;19.20;99.90
38902;DHT22;24661;53.566;9.910;2023-06-14T07:31:53;19.30;99.90
38902;DHT22;24661;53.566;9.910;2023-06-14T07:34:18;19.40;99.90
38902;DHT22;24661;53.566;9.910;2023-06-14T07:36:44;19.50;99.90
38902;DHT22;24661;53.566;9.910;2023-06-14T07:39:10;18.00;99.90
38902;DHT22;24661;53.566;9.910;2023-06-14T07:41:36;19.70;99.90
38902;DHT22;24661;53.566;9.910;2023-06-14T07:44:01;19.70;99.90
38902;DHT22;24661;53.566;9.910;2023-06-14T07:46:27;19.80;99.90
38902;DHT22;24661;53.566;9.910;2023-06-14T07:48:52;21.60;99.90
38902;DHT22;24661;53.566;9.910;2023-06-14T07:51:18;19.90;99.90
38902;DHT22;24661;53.566;9.910;2023-06-14T07:53:44;20.00;99.90
38902;DHT22;24661;53.566;9.910;2023-06-14T07:56:09;20.70;99.90
38902;DHT22;24661;53.566;9.910;2023-06-14T07:58:35;20.20;99.90
38902;DHT22;24661;53.566;9.910;2023-06-14T08:01:01;20.20;99.90
38902;DHT22;24661;53.566;9.910;2023-06-14T08:03:31;20.20;99.90
38902;DHT22;24661;53.566;9.910;2023-06-14T08:05:57;20.30;99.90
38902;DHT22;24661;53.566;9.910;2023-06-14T08:08:23;20.40;99.90
38902;DHT22;24661;53.566;9.910;2023-06-14T08:10:49;20.40;99.90
38902;DHT22;24661;53.566;9.910;2023-06-14T08:13:14;20.50;99.90
38902;DHT22;24661;53.566;9.910;2023-06-14T08:15:40;20.60;99.90
38902;DHT22;24661;53.566;9.910;2023-06-14T08:18:05;20.70;99.90
38902;DHT22;24661;53.566;9.910;2023-06-14T08:20:31;20.80;99.90
38902;DHT22;24661;53.566;9.910;2023-06-14T08:22:57;20.80;99.90
38902;DHT22;24661;53.566;9.910;2023-06-14T08:25:24;20.80;99.90
38902;DHT22;24661;53.566;9.910;2023-06-14T08:27:49;20.90;99.90
38902;DHT22;24661;53.566;9.910;2023-06-14T08:30:15;20.90;99.90
38902;DHT22;24661;53.566;9.910;2023-06-14T08:32:43;21.00;99.90
38902;DHT22;24661;53.566;9.910;2023-06-14T08:35:08;21.00;99.90
38902;DHT22;24661;53.566;9.910;2023-06-14T08:37:38;21.10;99.90
38902;DHT22;24661;53.566;9.910;2023-06-14T08:40:12;21.10;99.90
38902;DHT22;24661;53.566;9.910;2023-06-14T08:42:41;21.20;99.90
38902;DHT22;24661;53.566;9.910;2023-06-14T08:45:07;21.30;99.90
38902;DHT22;24661;53.566;9.910;2023-06-14T08:47:33;21.30;99.90
38902;DHT22;24661;53.566;9.910;2023-06-14T08:50:03;21.30;99.90
38902;DHT22;24661;53.566;9.910;2023-06-14T08:52:33;21.40;99.90
38902;DHT22;24661;53.566;9.910;2023-06-14T08:55:06;21.60;99.90
38902;DHT22;24661;53.566;9.910;2023-06-14T08:57:32;21.60;99.90
38902;DHT22;24661;53.566;9.910;2023-06-14T09:00:03;21.70;99.90
38902;DHT22;24661;53.566;9.910;2023-06-14T09:02:35;21.70;99.90
38902;DHT22;24661;53.566;9.910;2023-06-14T09:05:01;21.80;99.90
38902;DHT22;24661;53.566;9.910;2023-06-14T09:07:26;21.90;99.90
38902;DHT22;24661;53.566;9.910;2023-06-14T09:10:09;22.10;99.90
38902;DHT22;24661;53.566;9.910;2023-06-14T09:12:35;22.10;99.90
38902;DHT22;24661;53.566;9.910;2023-06-14T09:15:02;22.20;99.90
38902;DHT22;24661;53.566;9.910;2023-06-14T09:17:32;22.40;99.90
38902;DHT22;24661;53.566;9.910;2023-06-14T09:19:58;22.40;99.90
38902;DHT22;24661;53.566;9.910;2023-06-14T09:22:24;22.60;99.90
38902;DHT22;24661;53.566;9.910;2023-06-14T09:24:49;22.50;99.90
38902;DHT22;24661;53.566;9.910;2023-06-14T09:27:15;22.60;99.90
38902;DHT22;24661;53.566;9.910;2023-06-14T09:29:41;22.60;99.90
38902;DHT22;24661;53.566;9.910;2023-06-14T09:32:07;22.50;99.90
38902;DHT22;24661;53.566;9.910;2023-06-14T09:34:34;22.40;99.90
38902;DHT22;24661;53.566;9.910;2023-06-14T09:37:00;22.40;99.90
38902;DHT22;24661;53.566;9.910;2023-06-14T09:39:25;22.50;99.90
38902;DHT22;24661;53.566;9.910;2023-06-14T09:41:52;22.50;99.90
38902;DHT22;24661;53.566;9.910;2023-06-14T09:44:18;22.60;99.90
38902;DHT22;24661;53.566;9.910;2023-06-14T09:46:44;22.70;99.90
38902;DHT22;24661;53.566;9.910;2023-06-14T09:49:10;22.70;99.90
38902;DHT22;24661;53.566;9.910;2023-06-14T09:51:43;22.70;99.90
38902;DHT22;24661;53.566;9.910;2023-06-14T09:54:15;22.60;99.90
38902;DHT22;24661;53.566;9.910;2023-06-14T09:56:42;22.70;99.90
38902;DHT22;24661;53.566;9.910;2023-06-14T09:59:12;22.80;99.90
38902;DHT22;24661;53.566;9.910;2023-06-14T10:01:42;23.00;99.90
38902;DHT22;24661;53.566;9.910;2023-06-14T10:04:09;23.10;99.90
38902;DHT22;24661;53.566;9.910;2023-06-14T10:06:45;23.10;99.90
38902;DHT22;24661;53.566;9.910;2023-06-14T10:09:12;23.20;99.90
38902;DHT22;24661;53.566;9.910;2023-06-14T10:11:38;23.40;99.90
38902;DHT22;24661;53.566;9.910;2023-06-14T10:14:09;23.40;99.90
38902;DHT22;24661;53.566;9.910;2023-06-14T10:19:24;23.80;99.90
38902;DHT22;24661;53.566;9.910;2023-06-14T10:22:01;23.90;99.90
38902;DHT22;24661;53.566;9.910;2023-06-14T10:24:43;24.00;99.90
38902;DHT22;24661;53.566;9.910;2023-06-14T10:27:09;24.00;99.90
38902;DHT22;24661;53.566;9.910;2023-06-14T10:32:27;24.00;99.90
38902;DHT22;24661;53.566;9.910;2023-06-14T10:34:57;24.20;99.90
38902;DHT22;24661;53.566;9.910;2023-06-14T10:37:22;24.00;99.90
38902;DHT22;24661;53.566;9.910;2023-06-14T10:39:50;23.90;99.90
38902;DHT22;24661;53.566;9.910;2023-06-14T10:42:16;23.90;99.90
38902;DHT22;24661;53.566;9.910;2023-06-14T10:44:55;23.70;99.90
38902;DHT22;24661;53.566;9.910;2023-06-14T10:47:50;23.90;99.90
38902;DHT22;24661;53.566;9.910;2023-06-14T10:50:27;24.00;99.90
38902;DHT22;24661;53.566;9.910;2023-06-14T10:52:53;24.00;99.90
38902;DHT22;24661;53.566;9.910;2023-06-14T10:55:19;24.10;99.90
38902;DHT22;24661;53.566;9.910;2023-06-14T10:57:54;24.30;99.90
38902;DHT22;24661;53.566;9.910;2023-06-14T11:00:27;24.40;99.90
38902;DHT22;24661;53.566;9.910;2023-06-14T11:05:57;24.90;99.90
38902;DHT22;24661;53.566;9.910;2023-06-14T11:11:07;24.80;99.90
38902;DHT22;24661;53.566;9.910;2023-06-14T11:13:33;24.80;99.90
38902;DHT22;24661;53.566;9.910;2023-06-14T11:15:59;24.80;99.90
38902;DHT22;24661;53.566;9.910;2023-06-14T11:18:25;24.70;99.90
38902;DHT22;24661;53.566;9.910;2023-06-14T11:20:53;24.70;99.90
38902;DHT22;24661;53.566;9.910;2023-06-14T11:23:19;24.50;99.90
38902;DHT22;24661;53.566;9.910;2023-06-14T11:25:54;24.20;99.90
38902;DHT22;24661;53.566;9.910;2023-06-14T11:28:21;24.10;99.90
38902;DHT22;24661;53.566;9.910;2023-06-14T11:30:49;23.90;99.90
38902;DHT22;24661;53.566;9.910;2023-06-14T11:33:24;23.80;99.90
38902;DHT22;24661;53.566;9.910;2023-06-14T11:35:51;23.90;99.90
38902;DHT22;24661;53.566;9.910;2023-06-14T11:38:16;24.10;99.90
38902;DHT22;24661;53.566;9.910;2023-06-14T11:40:42;24.30;99.90
38902;DHT22;24661;53.566;9.910;2023-06-14T11:43:08;24.60;99.90
38902;DHT22;24661;53.566;9.910;2023-06-14T11:45:33;24.70;99.90
38902;DHT22;24661;53.566;9.910;2023-06-14T11:47:59;24.80;99.90
38902;DHT22;24661;53.566;9.910;2023-06-14T11:50:26;24.60;99.90
38902;DHT22;24661;53.566;9.910;2023-06-14T11:52:56;24.60;99.90
38902;DHT22;24661;53.566;9.910;2023-06-14T11:55:23;24.50;99.90
38902;DHT22;24661;53.566;9.910;2023-06-14T11:57:50;24.70;99.90
38902;DHT22;24661;53.566;9.910;2023-06-14T12:00:16;25.00;99.90
38902;DHT22;24661;53.566;9.910;2023-06-14T12:02:51;25.20;99.90
38902;DHT22;24661;53.566;9.910;2023-06-14T12:05:20;25.10;99.90
38902;DHT22;24661;53.566;9.910;2023-06-14T12:07:46;25.20;99.90
38902;DHT22;24661;53.566;9.910;2023-06-14T12:10:14;25.20;99.90
38902;DHT22;24661;53.566;9.910;2023-06-14T12:12:40;25.00;99.90
38902;DHT22;24661;53.566;9.910;2023-06-14T12:15:07;24.90;99.90
38902;DHT22;24661;53.566;9.910;2023-06-14T12:17:34;24.80;99.90
38902;DHT22;24661;53.566;9.910;2023-06-14T12:22:37;24.90;99.90
38902;DHT22;24661;53.566;9.910;2023-06-14T12:25:04;25.20;99.90
38902;DHT22;24661;53.566;9.910;2023-06-14T12:27:29;25.40;99.90
38902;DHT22;24661;53.566;9.910;2023-06-14T12:30:02;25.30;99.90
38902;DHT22;24661;53.566;9.910;2023-06-14T12:32:29;25.10;99.90
38902;DHT22;24661;53.566;9.910;2023-06-14T12:34:55;25.10;99.90
38902;DHT22;24661;53.566;9.910;2023-06-14T12:37:21;25.10;99.90
38902;DHT22;24661;53.566;9.910;2023-06-14T12:39:47;25.40;99.90
38902;DHT22;24661;53.566;9.910;2023-06-14T12:42:12;25.50;99.90
38902;DHT22;24661;53.566;9.910;2023-06-14T12:44:39;25.10;99.90
38902;DHT22;24661;53.566;9.910;2023-06-14T12:47:06;25.40;99.90
38902;DHT22;24661;53.566;9.910;2023-06-14T12:49:33;25.20;99.90
38902;DHT22;24661;53.566;9.910;2023-06-14T12:51:58;25.00;99.90
38902;DHT22;24661;53.566;9.910;2023-06-14T12:54:24;25.10;99.90
38902;DHT22;24661;53.566;9.910;2023-06-14T12:56:51;25.30;99.90
38902;DHT22;24661;53.566;9.910;2023-06-14T12:59:17;25.50;99.90
38902;DHT22;24661;53.566;9.910;2023-06-14T13:01:43;25.70;99.90
38902;DHT22;24661;53.566;9.910;2023-06-14T13:04:10;25.80;99.90
38902;DHT22;24661;53.566;9.910;2023-06-14T13:06:36;25.80;99.90
38902;DHT22;24661;53.566;9.910;2023-06-14T13:09:02;25.70;99.90
38902;DHT22;24661;53.566;9.910;2023-06-14T13:11:29;25.40;99.90
38902;DHT22;24661;53.566;9.910;2023-06-14T13:13:54;25.40;99.90
38902;DHT22;24661;53.566;9.910;2023-06-14T13:16:20;25.30;99.90
38902;DHT22;24661;53.566;9.910;2023-06-14T13:18:46;25.10;99.90
38902;DHT22;24661;53.566;9.910;2023-06-14T13:21:11;25.20;99.90
38902;DHT22;24661;53.566;9.910;2023-06-14T13:23:37;25.30;99.90
38902;DHT22;24661;53.566;9.910;2023-06-14T13:26:02;25.40;99.90
38902;DHT22;24661;53.566;9.910;2023-06-14T13:28:28;25.40;99.90
38902;DHT22;24661;53.566;9.910;2023-06-14T13:30:53;25.20;99.90
38902;DHT22;24661;53.566;9.910;2023-06-14T13:33:21;25.10;99.90
38902;DHT22;24661;53.566;9.910;2023-06-14T13:35:46;25.00;99.90
38902;DHT22;24661;53.566;9.910;2023-06-14T13:38:14;25.00;99.90
38902;DHT22;24661;53.566;9.910;2023-06-14T13:40:40;25.00;99.90
38902;DHT22;24661;53.566;9.910;2023-06-14T13:43:06;25.10;99.90
38902;DHT22;24661;53.566;9.910;2023-06-14T13:45:32;25.10;99.90
38902;DHT22;24661;53.566;9.910;2023-06-14T13:47:57;24.90;99.90
38902;DHT22;24661;53.566;9.910;2023-06-14T13:50:23;24.70;99.90
38902;DHT22;24661;53.566;9.910;2023-06-14T13:52:48;24.50;99.90
38902;DHT22;24661;53.566;9.910;2023-06-14T13:55:14;24.40;99.90
38902;DHT22;24661;53.566;9.910;2023-06-14T13:57:40;24.50;99.90
38902;DHT22;24661;53.566;9.910;2023-06-14T14:00:06;24.70;99.90
38902;DHT22;24661;53.566;9.910;2023-06-14T14:02:32;24.70;99.90
38902;DHT22;24661;53.566;9.910;2023-06-14T14:04:57;24.70;99.90
38902;DHT22;24661;53.566;9.910;2023-06-14T14:07:23;24.80;99.90
38902;DHT22;24661;53.566;9.910;2023-06-14T14:09:49;24.80;99.90
38902;DHT22;24661;53.566;9.910;2023-06-14T14:12:15;24.90;99.90
38902;DHT22;24661;53.566;9.910;2023-06-14T14:14:40;25.00;99.90
38902;DHT22;24661;53.566;9.910;2023-06-14T14:17:06;25.10;99.90
38902;DHT22;24661;53.566;9.910;2023-06-14T14:19:35;25.40;99.90
38902;DHT22;24661;53.566;9.910;2023-06-14T14:22:01;25.30;99.90
38902;DHT22;24661;53.566;9.910;2023-06-14T14:24:27;25.20;99.90
38902;DHT22;24661;53.566;9.910;2023-06-14T14:26:53;25.00;99.90
38902;DHT22;24661;53.566;9.910;2023-06-14T14:29:19;24.90;99.90
38902;DHT22;24661;53.566;9.910;2023-06-14T14:31:45;24.90;99.90
38902;DHT22;24661;53.566;9.910;2023-06-14T14:34:10;25.00;99.90
38902;DHT22;24661;53.566;9.910;2023-06-14T14:36:36;25.00;99.90
38902;DHT22;24661;53.566;9.910;2023-06-14T14:39:04;24.90;99.90
38902;DHT22;24661;53.566;9.910;2023-06-14T14:41:29;24.80;99.90
38902;DHT22;24661;53.566;9.910;2023-06-14T14:43:55;24.60;99.90
38902;DHT22;24661;53.566;9.910;2023-06-14T14:46:21;24.50;99.90
38902;DHT22;24661;53.566;9.910;2023-06-14T14:48:46;24.50;99.90
38902;DHT22;24661;53.566;9.910;2023-06-14T14:51:12;24.40;99.90
38902;DHT22;24661;53.566;9.910;2023-06-14T14:53:37;24.40;99.90
38902;DHT22;24661;53.566;9.910;2023-06-14T14:56:03;24.70;99.90
38902;DHT22;24661;53.566;9.910;2023-06-14T14:58:29;24.80;99.90
38902;DHT22;24661;53.566;9.910;2023-06-14T15:00:54;24.90;99.90
38902;DHT22;24661;53.566;9.910;2023-06-14T15:03:20;24.80;99.90
38902;DHT22;24661;53.566;9.910;2023-06-14T15:05:46;24.70;99.90
38902;DHT22;24661;53.566;9.910;2023-06-14T15:08:12;24.60;99.90
38902;DHT22;24661;53.566;9.910;2023-06-14T15:10:38;24.60;99.90
38902;DHT22;24661;53.566;9.910;2023-06-14T15:13:08;24.60;99.90
38902;DHT22;24661;53.566;9.910;2023-06-14T15:15:35;24.60;99.90
38902;DHT22;24661;53.566;9.910;2023-06-14T15:18:01;24.50;99.90
38902;DHT22;24661;53.566;9.910;2023-06-14T15:20:27;24.50;99.90
38902;DHT22;24661;53.566;9.910;2023-06-14T15:22:53;24.50;99.90
38902;DHT22;24661;53.566;9.910;2023-06-14T15:25:21;24.50;99.90
38902;DHT22;24661;53.566;9.910;2023-06-14T15:27:46;24.40;99.90
38902;DHT22;24661;53.566;9.910;2023-06-14T15:30:12;24.40;99.90
38902;DHT22;24661;53.566;9.910;2023-06-14T15:32:38;24.40;99.80
38902;DHT22;24661;53.566;9.910;2023-06-14T15:35:04;24.40;99.50
38902;DHT22;24661;53.566;9.910;2023-06-14T15:37:30;24.40;99.80
38902;DHT22;24661;53.566;9.910;2023-06-14T15:39:55;24.40;99.90
38902;DHT22;24661;53.566;9.910;2023-06-14T15:42:21;24.30;99.60
38902;DHT22;24661;53.566;9.910;2023-06-14T15:44:47;24.40;99.10
38902;DHT22;24661;53.566;9.910;2023-06-14T15:47:13;24.30;99.30
38902;DHT22;24661;53.566;9.910;2023-06-14T15:49:38;24.20;99.70
38902;DHT22;24661;53.566;9.910;2023-06-14T15:52:05;24.20;99.50